createdAt,value
2022-12-05T00:02:27.178Z,0.20
2022-12-05T00:04:56.715Z,0.20
2022-12-05T00:07:25.148Z,0.20
2022-12-05T00:09:54.980Z,0.20
2022-12-05T00:12:23.624Z,0.20
2022-12-05T00:14:52.073Z,1.13
2022-12-05T00:17:20.330Z,0.20
2022-12-05T00:19:52.305Z,0.20
2022-12-05T00:22:25.014Z,0.20
2022-12-05T00:24:55.006Z,0.20
2022-12-05T00:27:23.239Z,1.07
2022-12-05T00:29:51.506Z,0.30
2022-12-05T00:32:19.861Z,0.20
2022-12-05T00:34:48.271Z,0.20
2022-12-05T00:37:16.549Z,0.20
2022-12-05T00:39:45.173Z,0.20
2022-12-05T00:42:15.205Z,0.20
2022-12-05T00:44:43.838Z,0.20
2022-12-05T00:47:12.169Z,0.20
2022-12-05T00:49:40.430Z,0.20
2022-12-05T00:52:08.878Z,0.20
2022-12-05T00:54:37.151Z,0.20
2022-12-05T00:57:06.537Z,4.63
2022-12-05T00:59:36.246Z,0.20
2022-12-05T01:02:04.996Z,0.20
2022-12-05T01:04:33.284Z,0.40
2022-12-05T01:07:01.566Z,0.20
2022-12-05T01:09:31.306Z,0.20
2022-12-05T01:11:59.711Z,0.30
2022-12-05T01:14:28.610Z,0.20
2022-12-05T01:16:58.818Z,0.20
2022-12-05T01:19:28.743Z,0.20
2022-12-05T01:21:58.063Z,0.40
2022-12-05T01:24:27.669Z,0.20
2022-12-05T01:26:56.883Z,0.20
2022-12-05T01:29:25.945Z,0.30
2022-12-05T01:31:54.756Z,0.20
2022-12-05T01:34:24.799Z,0.20
2022-12-05T01:36:53.182Z,0.20
2022-12-05T01:39:21.489Z,0.20
2022-12-05T01:41:50.848Z,0.30
2022-12-05T01:44:56.453Z,0.20
2022-12-05T01:47:26.554Z,0.20
2022-12-05T01:49:57.430Z,0.20
2022-12-05T01:52:28.479Z,0.20
2022-12-05T01:54:59.496Z,0.20
2022-12-05T01:57:30.143Z,0.20
2022-12-05T02:00:02.171Z,0.20
2022-12-05T02:02:43.403Z,0.20
2022-12-05T02:05:16.989Z,0.20
2022-12-05T02:07:45.516Z,0.27
2022-12-05T02:10:14.284Z,0.20
2022-12-05T02:12:43.252Z,11.27
2022-12-05T02:15:22.392Z,0.20
2022-12-05T02:17:56.950Z,0.20
2022-12-05T02:20:34.928Z,0.20
2022-12-05T02:23:40.155Z,0.20
2022-12-05T02:26:39.292Z,0.20
2022-12-05T02:29:39.483Z,0.20
2022-12-05T02:32:12.640Z,0.20
2022-12-05T02:34:48.384Z,0.40
2022-12-05T02:37:22.176Z,0.30
2022-12-05T02:39:55.288Z,0.20
2022-12-05T02:42:28.234Z,16.20
2022-12-05T02:44:59.288Z,17.80
2022-12-05T02:47:32.207Z,17.87
2022-12-05T02:50:01.059Z,18.27
2022-12-05T02:52:30.379Z,17.70
2022-12-05T02:54:59.387Z,17.33
2022-12-05T02:57:27.642Z,17.07
2022-12-05T02:59:56.135Z,15.03
2022-12-05T03:02:26.306Z,15.77
2022-12-05T03:04:58.015Z,15.97
2022-12-05T03:07:28.187Z,16.37
2022-12-05T03:09:58.354Z,14.70
2022-12-05T03:12:28.974Z,15.30
2022-12-05T03:14:59.488Z,15.10
2022-12-05T03:17:35.164Z,16.00
2022-12-05T03:20:08.876Z,14.73
2022-12-05T03:22:41.308Z,18.30
2022-12-05T03:25:10.070Z,16.90
2022-12-05T03:27:48.045Z,17.10
2022-12-05T03:30:17.854Z,16.63
2022-12-05T03:32:51.182Z,14.97
2022-12-05T03:35:25.008Z,15.67
2022-12-05T03:37:56.162Z,14.03
2022-12-05T03:40:29.129Z,14.60
2022-12-05T03:43:02.856Z,14.70
2022-12-05T03:45:36.038Z,15.10
2022-12-05T03:48:12.426Z,16.10
2022-12-05T03:50:44.206Z,17.70
2022-12-05T03:53:19.938Z,16.47
2022-12-05T03:55:52.431Z,18.70
2022-12-05T03:58:24.856Z,19.73
2022-12-05T04:00:54.338Z,18.97
2022-12-05T04:03:26.537Z,22.53
2022-12-05T04:05:58.138Z,21.57
2022-12-05T04:08:29.001Z,19.93
2022-12-05T04:11:01.822Z,20.87
2022-12-05T04:13:34.837Z,19.03
2022-12-05T04:16:23.850Z,22.33
2022-12-05T04:18:55.770Z,19.10
2022-12-05T04:21:39.184Z,20.40
2022-12-05T04:24:27.960Z,20.20
2022-12-05T04:27:08.035Z,20.63
2022-12-05T04:29:39.301Z,18.90
2022-12-05T04:32:10.818Z,19.40
2022-12-05T04:34:39.263Z,19.47
2022-12-05T04:37:12.659Z,16.90
2022-12-05T04:39:47.167Z,17.20
2022-12-05T04:42:17.500Z,17.87
2022-12-05T04:44:49.075Z,17.03
2022-12-05T04:47:19.223Z,16.97
2022-12-05T04:49:52.175Z,15.77
2022-12-05T04:52:23.994Z,14.93
2022-12-05T04:54:54.707Z,16.83
2022-12-05T04:57:25.877Z,14.67
2022-12-05T04:59:54.334Z,18.80
2022-12-05T05:02:26.476Z,18.03
2022-12-05T05:04:56.229Z,17.90
2022-12-05T05:07:26.241Z,16.63
2022-12-05T05:09:54.536Z,15.60
2022-12-05T05:12:22.836Z,14.70
2022-12-05T05:14:51.102Z,15.63
2022-12-05T05:17:19.981Z,15.77
2022-12-05T05:19:49.045Z,17.23
2022-12-05T05:22:17.622Z,15.80
2022-12-05T05:24:47.633Z,13.40
2022-12-05T05:27:15.997Z,14.23
2022-12-05T05:29:44.503Z,13.77
2022-12-05T05:32:12.785Z,13.20
2022-12-05T05:34:41.372Z,16.33
2022-12-05T05:37:09.838Z,14.43
2022-12-05T05:39:38.160Z,14.60
2022-12-05T05:42:07.960Z,13.77
2022-12-05T05:44:36.471Z,14.90
2022-12-05T05:47:05.120Z,13.80
2022-12-05T05:49:33.499Z,15.77
2022-12-05T05:52:01.786Z,15.63
2022-12-05T05:54:30.296Z,12.63
2022-12-05T05:56:58.628Z,15.57
2022-12-05T05:59:28.332Z,15.77
2022-12-05T06:01:56.623Z,16.33
2022-12-05T06:04:24.999Z,16.17
2022-12-05T06:06:53.335Z,16.37
2022-12-05T06:09:21.649Z,17.03
2022-12-05T06:11:50.210Z,16.40
2022-12-05T06:14:18.861Z,13.93
2022-12-05T06:16:48.762Z,15.30
2022-12-05T06:19:17.349Z,14.30
2022-12-05T06:21:45.751Z,15.60
2022-12-05T06:24:14.321Z,16.60
2022-12-05T06:26:42.783Z,16.40
2022-12-05T06:29:11.181Z,14.90
2022-12-05T06:31:39.544Z,14.87
2022-12-05T06:34:09.621Z,17.47
2022-12-05T06:36:37.900Z,15.50
2022-12-05T06:39:06.420Z,15.90
2022-12-05T06:41:34.884Z,15.80
2022-12-05T06:44:03.715Z,15.83
2022-12-05T06:46:33.171Z,15.40
2022-12-05T06:49:01.500Z,16.50
2022-12-05T06:51:33.457Z,16.90
2022-12-05T06:54:01.788Z,15.77
2022-12-05T06:56:30.063Z,16.10
2022-12-05T06:58:58.336Z,15.63
2022-12-05T07:01:42.624Z,15.80
2022-12-05T07:04:14.014Z,14.73
2022-12-05T07:06:50.159Z,15.00
2022-12-05T07:09:19.709Z,15.20
2022-12-05T07:11:48.654Z,15.80
2022-12-05T07:14:38.965Z,15.13
2022-12-05T07:17:05.850Z,14.50
2022-12-05T07:19:34.228Z,15.93
2022-12-05T07:22:04.938Z,15.87
2022-12-05T07:24:33.339Z,15.60
2022-12-05T07:27:01.560Z,16.03
2022-12-05T07:29:30.066Z,14.53
2022-12-05T07:31:58.517Z,17.40
2022-12-05T07:34:27.014Z,15.83
2022-12-05T07:36:55.303Z,14.83
2022-12-05T07:39:24.985Z,15.27
2022-12-05T07:41:53.225Z,16.30
2022-12-05T07:44:21.567Z,14.20
2022-12-05T07:46:49.843Z,16.57
2022-12-05T07:49:18.131Z,16.00
2022-12-05T07:51:46.494Z,17.17
2022-12-05T07:54:14.777Z,16.17
2022-12-05T07:56:47.781Z,15.27
2022-12-05T07:59:16.632Z,16.07
2022-12-05T08:01:44.974Z,17.70
2022-12-05T08:04:15.581Z,16.87
2022-12-05T08:06:44.464Z,16.60
2022-12-05T08:09:12.832Z,15.33
2022-12-05T08:11:41.071Z,16.30
2022-12-05T08:14:11.471Z,16.67
2022-12-05T08:16:39.859Z,16.73
2022-12-05T08:19:09.953Z,16.43
2022-12-05T08:21:38.220Z,17.30
2022-12-05T08:24:07.438Z,16.33
2022-12-05T08:26:37.410Z,14.30
2022-12-05T08:29:07.438Z,15.20
2022-12-05T08:31:40.552Z,15.97
2022-12-05T08:34:09.042Z,15.93
2022-12-05T08:36:37.784Z,15.00
2022-12-05T08:39:08.098Z,14.97
2022-12-05T08:41:36.402Z,15.73
2022-12-05T08:44:06.699Z,16.57
2022-12-05T08:46:37.818Z,16.63
2022-12-05T08:49:07.374Z,16.33
2022-12-05T08:51:36.063Z,15.43
2022-12-05T08:54:05.089Z,15.80
2022-12-05T08:56:34.081Z,15.50
2022-12-05T08:59:05.615Z,15.17
2022-12-05T09:01:38.758Z,15.30
2022-12-05T09:04:08.357Z,16.00
2022-12-05T09:06:36.650Z,17.70
2022-12-05T09:09:07.681Z,16.40
2022-12-05T09:11:40.952Z,15.10
2022-12-05T09:14:09.427Z,14.53
2022-12-05T09:16:40.642Z,15.03
2022-12-05T09:19:14.600Z,17.03
2022-12-05T09:21:43.670Z,14.83
2022-12-05T09:24:13.514Z,16.20
2022-12-05T09:26:42.577Z,16.80
2022-12-05T09:29:16.703Z,12.60
2022-12-05T09:31:47.529Z,16.40
2022-12-05T09:34:18.349Z,16.10
2022-12-05T09:37:05.539Z,15.60
2022-12-05T09:39:40.578Z,16.90
2022-12-05T09:42:36.917Z,16.20
2022-12-05T09:45:20.211Z,15.40
2022-12-05T09:47:56.338Z,13.80
2022-12-05T09:50:34.891Z,15.47
2022-12-05T09:53:11.926Z,15.17
2022-12-05T09:55:48.571Z,13.80
2022-12-05T09:58:38.922Z,14.50
2022-12-05T10:01:27.478Z,13.00
2022-12-05T10:04:26.145Z,13.60
2022-12-05T10:07:01.925Z,13.60
2022-12-05T10:09:41.870Z,15.10
2022-12-05T10:12:17.187Z,14.80
2022-12-05T10:14:53.457Z,13.50
2022-12-05T10:17:25.475Z,13.80
2022-12-05T10:19:58.803Z,14.87
2022-12-05T10:22:30.819Z,15.10
2022-12-05T10:25:02.739Z,13.20
2022-12-05T10:27:39.963Z,13.67
2022-12-05T10:30:15.723Z,13.73
2022-12-05T10:32:53.371Z,12.93
2022-12-05T10:35:24.826Z,15.20
2022-12-05T10:37:55.968Z,13.27
2022-12-05T10:40:25.892Z,13.40
2022-12-05T10:42:54.211Z,14.33
2022-12-05T10:45:24.377Z,13.00
2022-12-05T10:47:55.976Z,14.53
2022-12-05T10:50:30.675Z,13.27
2022-12-05T10:53:01.830Z,15.10
2022-12-05T10:55:32.683Z,12.70
2022-12-05T10:58:17.276Z,12.43
2022-12-05T11:00:48.467Z,13.60
2022-12-05T11:03:26.042Z,14.73
2022-12-05T11:05:57.939Z,13.97
2022-12-05T11:08:55.978Z,13.10
2022-12-05T11:11:21.661Z,11.57
2022-12-05T11:13:54.974Z,12.27
2022-12-05T11:16:26.085Z,12.17
2022-12-05T11:18:54.517Z,12.00
2022-12-05T11:21:24.323Z,12.23
2022-12-05T11:23:52.713Z,13.20
2022-12-05T11:26:37.689Z,11.70
2022-12-05T11:29:06.448Z,11.53
2022-12-05T11:31:35.302Z,13.07
2022-12-05T11:34:15.106Z,12.50
2022-12-05T11:36:48.380Z,12.60
2022-12-05T11:39:17.737Z,11.80
2022-12-05T11:41:58.804Z,12.10
2022-12-05T11:44:42.035Z,12.87
2022-12-05T11:47:19.107Z,12.03
2022-12-05T11:50:09.464Z,11.83
2022-12-05T11:52:51.765Z,13.73
2022-12-05T11:55:24.185Z,12.67
2022-12-05T11:58:25.403Z,13.50
2022-12-05T12:01:03.716Z,13.30
2022-12-05T12:03:45.068Z,13.80
2022-12-05T12:06:26.719Z,13.63
2022-12-05T12:09:10.500Z,13.40
2022-12-05T12:11:43.074Z,14.57
2022-12-05T12:14:17.513Z,12.83
2022-12-05T12:16:54.886Z,11.50
2022-12-05T12:19:34.553Z,13.80
2022-12-05T12:22:13.786Z,11.67
2022-12-05T12:24:58.832Z,12.50
2022-12-05T12:27:41.668Z,12.47
2022-12-05T12:30:15.835Z,12.83
2022-12-05T12:32:54.540Z,12.27
2022-12-05T12:35:32.842Z,13.47
2022-12-05T12:38:29.576Z,12.20
2022-12-05T12:41:03.619Z,11.97
2022-12-05T12:43:58.860Z,14.40
2022-12-05T12:46:39.486Z,12.70
2022-12-05T12:49:25.501Z,13.23
2022-12-05T12:51:55.089Z,13.20
2022-12-05T12:55:02.277Z,13.77
2022-12-05T12:57:28.834Z,11.10
2022-12-05T13:00:05.557Z,13.23
2022-12-05T13:02:37.933Z,12.27
2022-12-05T13:05:09.029Z,13.73
2022-12-05T13:07:41.780Z,11.17
2022-12-05T13:10:18.444Z,13.13
2022-12-05T13:12:48.539Z,12.20
2022-12-05T13:15:21.404Z,12.63
2022-12-05T13:17:50.624Z,12.90
2022-12-05T13:20:22.202Z,12.23
2022-12-05T13:22:52.109Z,13.80
2022-12-05T13:25:23.409Z,13.80
2022-12-05T13:27:59.070Z,12.87
2022-12-05T13:30:28.396Z,11.57
2022-12-05T13:32:58.549Z,11.60
2022-12-05T13:35:49.668Z,11.23
2022-12-05T13:38:40.442Z,10.13
2022-12-05T13:41:26.500Z,10.53
2022-12-05T13:44:06.429Z,12.97
2022-12-05T13:46:36.651Z,11.83
2022-12-05T13:49:08.848Z,11.63
2022-12-05T13:51:41.853Z,11.00
2022-12-05T13:54:13.983Z,11.50
2022-12-05T13:56:51.822Z,12.00
2022-12-05T13:59:58.127Z,12.30
2022-12-05T14:02:52.308Z,13.50
2022-12-05T14:05:41.112Z,13.10
2022-12-05T14:08:48.912Z,15.00
2022-12-05T14:11:18.196Z,15.10
2022-12-05T14:13:46.876Z,15.23
2022-12-05T14:16:49.712Z,15.20
2022-12-05T14:19:49.372Z,15.80
2022-12-05T14:22:41.552Z,15.27
2022-12-05T14:25:17.954Z,16.20
2022-12-05T14:27:52.633Z,14.60
2022-12-05T14:30:26.040Z,16.47
2022-12-05T14:32:55.388Z,17.60
2022-12-05T14:35:30.050Z,16.30
2022-12-05T14:38:01.108Z,16.67
2022-12-05T14:40:33.089Z,16.33
2022-12-05T14:43:03.289Z,16.57
2022-12-05T14:45:35.253Z,17.00
2022-12-05T14:48:06.891Z,17.23
2022-12-05T14:50:43.474Z,17.33
2022-12-05T14:53:37.728Z,20.00
2022-12-05T14:56:17.774Z,18.03
2022-12-05T14:58:50.628Z,17.73
2022-12-05T15:01:21.290Z,18.80
2022-12-05T15:04:05.006Z,18.47
2022-12-05T15:06:37.699Z,19.17
2022-12-05T15:09:36.089Z,18.37
2022-12-05T15:11:58.908Z,19.20
2022-12-05T15:14:31.407Z,19.37
2022-12-05T15:17:01.292Z,19.40
2022-12-05T15:19:32.924Z,18.30
2022-12-05T15:22:07.925Z,17.13
2022-12-05T15:24:39.806Z,19.33
2022-12-05T15:27:12.889Z,19.87
2022-12-05T15:29:41.644Z,17.10
2022-12-05T15:32:17.906Z,18.57
2022-12-05T15:34:48.594Z,18.30
2022-12-05T15:37:21.804Z,17.10
2022-12-05T15:39:56.820Z,15.83
2022-12-05T15:42:30.210Z,16.43
2022-12-05T15:45:16.039Z,15.93
2022-12-05T15:47:47.777Z,15.40
2022-12-05T15:50:16.828Z,14.53
2022-12-05T15:52:50.787Z,15.00
2022-12-05T15:55:22.204Z,15.57
2022-12-05T15:57:56.247Z,15.03
2022-12-05T16:00:26.411Z,15.27
2022-12-05T16:02:58.218Z,15.90
2022-12-05T16:05:30.141Z,15.67
2022-12-05T16:08:02.110Z,16.40
2022-12-05T16:10:32.061Z,16.23
2022-12-05T16:13:06.489Z,15.40
2022-12-05T16:15:35.361Z,15.50
2022-12-05T16:18:06.176Z,15.30
2022-12-05T16:20:36.192Z,14.97
2022-12-05T16:23:07.001Z,14.00
2022-12-05T16:25:37.244Z,14.47
2022-12-05T16:28:17.609Z,14.80
2022-12-05T16:30:59.173Z,14.10
2022-12-05T16:33:28.533Z,15.50
2022-12-05T16:35:57.153Z,14.13
2022-12-05T16:38:30.044Z,14.53
2022-12-05T16:41:00.529Z,15.07
2022-12-05T16:43:43.007Z,15.13
2022-12-05T16:46:45.920Z,15.77
2022-12-05T16:49:37.828Z,15.10
2022-12-05T16:52:15.607Z,13.30
2022-12-05T16:54:48.340Z,14.03
2022-12-05T16:57:18.722Z,14.83
2022-12-05T16:59:49.561Z,15.30
2022-12-05T17:02:21.759Z,15.60
2022-12-05T17:04:50.489Z,14.67
2022-12-05T17:07:19.559Z,13.20
2022-12-05T17:09:50.840Z,14.77
2022-12-05T17:12:24.730Z,13.50
2022-12-05T17:14:53.511Z,13.80
2022-12-05T17:17:29.257Z,16.67
2022-12-05T17:19:59.461Z,16.80
2022-12-05T17:22:28.789Z,18.40
2022-12-05T17:25:01.559Z,18.40
2022-12-05T17:27:33.795Z,15.63
2022-12-05T17:30:02.501Z,18.33
2022-12-05T17:32:31.710Z,18.13
2022-12-05T17:35:06.577Z,16.87
2022-12-05T17:37:36.322Z,17.77
2022-12-05T17:40:08.697Z,15.73
2022-12-05T17:42:38.979Z,16.57
2022-12-05T17:45:10.743Z,17.43
2022-12-05T17:47:39.208Z,17.30
2022-12-05T17:50:09.145Z,15.67
2022-12-05T17:52:38.016Z,17.27
2022-12-05T17:55:18.554Z,17.40
2022-12-05T17:57:50.157Z,18.20
2022-12-05T18:00:22.281Z,17.90
2022-12-05T18:02:52.960Z,16.90
2022-12-05T18:05:22.204Z,17.23
2022-12-05T18:07:52.021Z,18.77
2022-12-05T18:10:24.211Z,17.27
2022-12-05T18:12:57.355Z,16.23
2022-12-05T18:15:26.049Z,15.77
2022-12-05T18:17:56.107Z,16.97
2022-12-05T18:20:25.482Z,17.30
2022-12-05T18:22:55.362Z,14.80
2022-12-05T18:25:26.856Z,16.30
2022-12-05T18:27:56.623Z,15.53
2022-12-05T18:30:25.965Z,14.37
2022-12-05T18:32:55.417Z,16.20
2022-12-05T18:35:40.700Z,13.83
2022-12-05T18:38:15.906Z,14.60
2022-12-05T18:40:47.732Z,14.70
2022-12-05T18:43:17.939Z,16.60
2022-12-05T18:45:47.657Z,16.00
2022-12-05T18:48:38.750Z,13.17
2022-12-05T18:51:13.068Z,13.30
2022-12-05T18:53:52.897Z,14.30
2022-12-05T18:56:28.324Z,14.73
2022-12-05T18:59:00.536Z,14.03
2022-12-05T19:01:31.574Z,13.33
2022-12-05T19:04:06.074Z,13.40
2022-12-05T19:06:52.348Z,14.23
2022-12-05T19:09:26.964Z,13.30
2022-12-05T19:12:03.930Z,12.50
2022-12-05T19:17:55.914Z,14.87
2022-12-05T19:20:29.368Z,12.67
2022-12-05T19:23:03.256Z,13.70
2022-12-05T19:28:59.902Z,13.67
2022-12-05T19:32:06.642Z,12.50
2022-12-05T19:35:05.469Z,13.27
2022-12-05T19:37:37.394Z,12.07
2022-12-05T19:40:18.580Z,0.20
2022-12-05T19:42:49.570Z,0.20
2022-12-05T19:45:22.143Z,0.20
2022-12-05T19:47:52.386Z,0.20
2022-12-05T19:50:29.188Z,0.20
2022-12-05T19:53:08.872Z,0.60
2022-12-05T19:55:41.361Z,0.20
2022-12-05T19:58:12.065Z,0.20
2022-12-05T20:00:49.556Z,0.20
2022-12-05T20:03:19.325Z,0.20
2022-12-05T20:05:58.966Z,0.20
2022-12-05T20:08:38.825Z,0.20
2022-12-05T20:11:12.952Z,1.30
2022-12-05T20:13:47.864Z,0.20
2022-12-05T20:16:22.361Z,7.87
2022-12-05T20:18:53.370Z,0.20
2022-12-05T20:21:24.405Z,0.20
2022-12-05T20:23:55.203Z,0.20
2022-12-05T20:26:28.130Z,0.20
2022-12-05T20:28:59.440Z,0.40
2022-12-05T20:31:37.165Z,0.20
2022-12-05T20:34:07.914Z,0.20
2022-12-05T20:36:39.030Z,0.20
2022-12-05T20:39:18.085Z,0.20
2022-12-05T20:41:51.053Z,0.20
2022-12-05T20:44:20.902Z,0.20
2022-12-05T20:46:55.871Z,0.20
2022-12-05T20:49:26.556Z,0.20
2022-12-05T20:51:58.265Z,0.20
2022-12-05T20:54:28.153Z,0.20
2022-12-05T20:56:58.718Z,0.20
2022-12-05T20:59:28.189Z,0.20
2022-12-05T21:01:59.253Z,0.20
2022-12-05T21:04:28.977Z,0.20
2022-12-05T21:06:58.807Z,0.20
2022-12-05T21:09:30.504Z,0.20
2022-12-05T21:12:00.967Z,0.20
2022-12-05T21:14:29.701Z,0.20
2022-12-05T21:17:01.668Z,0.20
2022-12-05T21:19:31.702Z,0.20
2022-12-05T21:22:01.204Z,0.20
2022-12-05T21:24:30.143Z,0.67
2022-12-05T21:26:58.556Z,0.20
2022-12-05T21:29:27.401Z,0.20
2022-12-05T21:31:55.697Z,0.20
2022-12-05T21:34:25.456Z,0.30
2022-12-05T21:36:53.911Z,0.20
2022-12-05T21:39:23.106Z,1.00
2022-12-05T21:41:51.552Z,0.20
2022-12-05T21:44:20.403Z,0.20
2022-12-05T21:46:49.614Z,0.20
2022-12-05T21:49:18.198Z,0.20
2022-12-05T21:51:47.950Z,0.20
2022-12-05T21:54:16.529Z,0.20
2022-12-05T21:56:45.372Z,0.20
2022-12-05T21:59:13.789Z,0.20
2022-12-05T22:01:42.196Z,0.20
2022-12-05T22:04:10.580Z,0.20
2022-12-05T22:06:40.571Z,0.20
2022-12-05T22:09:12.141Z,0.20
2022-12-05T22:11:41.850Z,0.20
2022-12-05T22:14:10.621Z,0.20
2022-12-05T22:16:38.962Z,0.20
2022-12-05T22:19:07.547Z,8.80
2022-12-05T22:21:35.998Z,0.20
2022-12-05T22:24:04.517Z,0.20
2022-12-05T22:26:34.312Z,0.20
2022-12-05T22:29:02.656Z,1.47
2022-12-05T22:31:31.125Z,0.50
2022-12-05T22:34:00.191Z,0.20
2022-12-05T22:36:28.566Z,0.20
2022-12-05T22:38:57.270Z,0.20
2022-12-05T22:41:27.119Z,0.20
2022-12-05T22:43:58.375Z,0.20
2022-12-05T22:46:29.341Z,0.20
2022-12-05T22:48:58.713Z,0.20
2022-12-05T22:51:28.123Z,0.20
2022-12-05T22:53:57.118Z,0.20
2022-12-05T22:56:27.783Z,0.20
2022-12-05T22:59:01.926Z,0.20
2022-12-05T23:01:31.804Z,0.20
2022-12-05T23:04:01.328Z,0.20
2022-12-05T23:06:31.091Z,0.50
2022-12-05T23:08:59.886Z,0.20
2022-12-05T23:11:29.848Z,0.20
2022-12-05T23:14:02.183Z,0.20
2022-12-05T23:16:33.276Z,0.20
2022-12-05T23:19:04.047Z,0.20
2022-12-05T23:21:34.386Z,0.20
2022-12-05T23:24:09.090Z,0.20
2022-12-05T23:26:39.461Z,0.20
2022-12-05T23:29:12.154Z,0.20
2022-12-05T23:31:40.669Z,0.20
2022-12-05T23:34:09.761Z,0.20
2022-12-05T23:36:39.230Z,0.20
2022-12-05T23:39:07.960Z,0.30
2022-12-05T23:41:36.469Z,0.20
2022-12-05T23:44:07.278Z,0.20
2022-12-05T23:46:38.040Z,6.00
2022-12-05T23:49:06.815Z,0.20
2022-12-05T23:51:40.211Z,0.20
2022-12-05T23:54:11.054Z,0.20
2022-12-05T23:56:40.332Z,0.20
2022-12-05T23:59:10.011Z,4.87
